createdAt,value
2023-11-21T00:00:14.312Z,95962.34
2023-11-21T00:02:43.950Z,95929.97
2023-11-21T00:05:16.421Z,95932.13
2023-11-21T00:07:45.676Z,95927.16
2023-11-21T00:10:17.284Z,95942.06
2023-11-21T00:12:49.235Z,95943.38
2023-11-21T00:15:17.822Z,95957.97
2023-11-21T00:17:46.116Z,95912.59
2023-11-21T00:20:15.973Z,95890.53
2023-11-21T00:22:44.605Z,95936.13
2023-11-21T00:25:16.556Z,95948.22
2023-11-21T00:27:45.421Z,95947.59
2023-11-21T00:30:15.678Z,95887.72
2023-11-21T00:32:44.508Z,95881.22
2023-11-21T00:35:12.972Z,95983.31
2023-11-21T00:37:43.670Z,95892.97
2023-11-21T00:40:14.002Z,95923.81
2023-11-21T00:42:42.659Z,95934.47
2023-11-21T00:45:12.508Z,95946.94
2023-11-21T00:47:41.015Z,95957.06
2023-11-21T00:50:11.133Z,95955.09
2023-11-21T00:52:39.545Z,95921.44
2023-11-21T00:55:11.518Z,95965.28
2023-11-21T00:57:40.141Z,95911.28
2023-11-21T01:00:14.880Z,95896.41
2023-11-21T01:02:44.235Z,95986.88
2023-11-21T01:05:21.042Z,95877.97
2023-11-21T01:07:49.397Z,95937.63
2023-11-21T01:10:20.657Z,95897.94
2023-11-21T01:12:50.158Z,95925.38
2023-11-21T01:15:18.691Z,95943.75
2023-11-21T01:17:47.060Z,95927.34
2023-11-21T01:20:15.744Z,95902.22
2023-11-21T01:22:44.601Z,95965.66
2023-11-21T01:25:15.549Z,95909.06
2023-11-21T01:27:46.297Z,95951.59
2023-11-21T01:30:15.590Z,95954.47
2023-11-21T01:32:45.164Z,95945.50
2023-11-21T01:35:13.669Z,95908.59
2023-11-21T01:37:42.080Z,95886.00
2023-11-21T01:40:15.571Z,95917.06
2023-11-21T01:42:46.187Z,95917.41
2023-11-21T01:45:15.153Z,95950.63
2023-11-21T01:47:44.984Z,95945.59
2023-11-21T01:50:18.271Z,95943.44
2023-11-21T01:52:48.303Z,95916.63
2023-11-21T01:55:27.587Z,95965.19
2023-11-21T01:57:59.366Z,95945.25
2023-11-21T02:00:29.896Z,95875.38
2023-11-21T02:02:58.955Z,95944.56
2023-11-21T02:05:27.479Z,95918.53
2023-11-21T02:07:55.957Z,95940.63
2023-11-21T02:10:25.249Z,95919.88
2023-11-21T02:12:54.438Z,95939.00
2023-11-21T02:15:28.137Z,95919.53
2023-11-21T02:17:59.711Z,95946.84
2023-11-21T02:20:30.401Z,95924.28
2023-11-21T02:23:01.402Z,95942.78
2023-11-21T02:25:33.222Z,95899.19
2023-11-21T02:28:04.326Z,95976.81
2023-11-21T02:30:33.713Z,95878.34
2023-11-21T02:33:03.484Z,95920.69
2023-11-21T02:35:33.531Z,96003.63
2023-11-21T02:38:03.694Z,95879.94
2023-11-21T02:40:32.691Z,95885.19
2023-11-21T02:43:01.222Z,95915.28
2023-11-21T02:45:30.264Z,95918.41
2023-11-21T02:47:59.620Z,95924.78
2023-11-21T02:50:28.862Z,95912.31
2023-11-21T02:52:59.248Z,95895.00
2023-11-21T02:55:29.339Z,95931.00
2023-11-21T02:57:58.585Z,95923.50
2023-11-21T03:00:28.055Z,95909.22
2023-11-21T03:02:58.437Z,95873.75
2023-11-21T03:05:28.269Z,95880.94
2023-11-21T03:08:06.859Z,95922.19
2023-11-21T03:10:36.901Z,96002.34
2023-11-21T03:13:05.510Z,95905.81
2023-11-21T03:15:34.332Z,95902.25
2023-11-21T03:18:03.539Z,95913.38
2023-11-21T03:20:32.054Z,95955.09
2023-11-21T03:23:00.878Z,95960.84
2023-11-21T03:25:31.009Z,95850.84
2023-11-21T03:28:00.788Z,95873.78
2023-11-21T03:30:29.104Z,95933.31
2023-11-21T03:32:57.828Z,95958.50
2023-11-21T03:35:26.268Z,95894.06
2023-11-21T03:37:54.689Z,95895.53
2023-11-21T03:40:24.674Z,95899.63
2023-11-21T03:42:53.170Z,95894.69
2023-11-21T03:45:24.487Z,95930.69
2023-11-21T03:47:52.998Z,95874.13
2023-11-21T03:50:21.376Z,95925.94
2023-11-21T03:52:49.708Z,95874.13
2023-11-21T03:55:18.297Z,95943.50
2023-11-21T03:57:46.799Z,95861.66
2023-11-21T04:00:16.189Z,95888.34
2023-11-21T04:02:46.041Z,95841.38
2023-11-21T04:05:14.687Z,95892.69
2023-11-21T04:07:43.055Z,95863.59
2023-11-21T04:10:14.131Z,95959.75
2023-11-21T04:12:42.797Z,95890.94
2023-11-21T04:15:13.353Z,95904.38
2023-11-21T04:17:42.166Z,95909.75
2023-11-21T04:20:12.685Z,95882.28
2023-11-21T04:22:45.689Z,95915.66
2023-11-21T04:25:17.301Z,95926.13
2023-11-21T04:27:48.397Z,95915.47
2023-11-21T04:30:17.251Z,95953.94
2023-11-21T04:32:45.786Z,95934.78
2023-11-21T04:35:16.186Z,95959.38
2023-11-21T04:37:44.687Z,95932.00
2023-11-21T04:40:14.071Z,95890.44
2023-11-21T04:42:42.645Z,95909.44
2023-11-21T04:45:13.717Z,95932.84
2023-11-21T04:47:44.982Z,95904.19
2023-11-21T04:50:15.046Z,95944.75
2023-11-21T04:52:43.638Z,95923.50
2023-11-21T04:55:12.305Z,95847.41
2023-11-21T04:57:42.885Z,95906.78
2023-11-21T05:00:14.120Z,95896.03
2023-11-21T05:02:45.808Z,95920.72
2023-11-21T05:05:16.604Z,95947.94
2023-11-21T05:07:45.180Z,95978.38
2023-11-21T05:10:16.218Z,95980.44
2023-11-21T05:12:44.907Z,95924.19
2023-11-21T05:15:17.555Z,95973.97
2023-11-21T05:17:47.035Z,95948.22
2023-11-21T05:20:22.303Z,95999.84
2023-11-21T05:22:50.771Z,95939.91
2023-11-21T05:25:21.282Z,95952.94
2023-11-21T05:27:50.416Z,95969.50
2023-11-21T05:30:18.662Z,95981.44
2023-11-21T05:32:49.128Z,95954.63
2023-11-21T05:35:19.075Z,95987.66
2023-11-21T05:37:49.245Z,95949.03
2023-11-21T05:40:18.108Z,96002.38
2023-11-21T05:42:46.957Z,95995.34
2023-11-21T05:45:16.663Z,95961.13
2023-11-21T05:47:48.334Z,95968.19
2023-11-21T05:50:19.855Z,95999.78
2023-11-21T05:52:49.907Z,95990.59
2023-11-21T05:55:18.793Z,95973.22
2023-11-21T05:57:47.278Z,95950.63
2023-11-21T06:00:22.129Z,95987.56
2023-11-21T06:02:53.767Z,95966.00
2023-11-21T06:05:27.839Z,95937.25
2023-11-21T06:07:59.869Z,95988.59
2023-11-21T06:10:30.024Z,95985.81
2023-11-21T06:13:01.621Z,95951.28
2023-11-21T06:15:32.242Z,95984.63
2023-11-21T06:18:01.205Z,96004.97
2023-11-21T06:20:31.353Z,95942.75
2023-11-21T06:25:34.283Z,95984.06
2023-11-21T06:28:02.857Z,95998.50
2023-11-21T06:30:32.119Z,95980.13
2023-11-21T06:33:01.020Z,96003.19
2023-11-21T06:35:33.925Z,95987.00
2023-11-21T06:38:02.239Z,95971.31
2023-11-21T06:40:31.551Z,95983.59
2023-11-21T06:43:01.072Z,95948.38
2023-11-21T06:45:29.720Z,96034.50
2023-11-21T06:47:58.355Z,95993.91
2023-11-21T06:50:28.014Z,96037.59
2023-11-21T06:52:58.128Z,96010.94
2023-11-21T06:55:26.440Z,95978.50
2023-11-21T06:57:54.864Z,96013.69
2023-11-21T07:00:23.633Z,96001.38
2023-11-21T07:02:52.222Z,96042.03
2023-11-21T07:05:24.500Z,96032.84
2023-11-21T07:07:55.407Z,96103.84
2023-11-21T07:10:26.483Z,96067.81
2023-11-21T07:12:55.266Z,96006.94
2023-11-21T07:15:23.878Z,96048.34
2023-11-21T07:17:52.164Z,96064.84
2023-11-21T07:20:22.625Z,96039.28
2023-11-21T07:22:51.359Z,96098.22
2023-11-21T07:25:20.104Z,96055.47
2023-11-21T07:27:50.544Z,96101.88
2023-11-21T07:30:21.149Z,96050.28
2023-11-21T07:32:49.479Z,96064.53
2023-11-21T07:35:18.194Z,96107.03
2023-11-21T07:37:49.032Z,96055.09
2023-11-21T07:40:19.252Z,96113.69
2023-11-21T07:42:49.876Z,96036.72
2023-11-21T07:45:18.992Z,96094.69
2023-11-21T07:47:47.350Z,96096.34
2023-11-21T07:50:16.388Z,96068.22
2023-11-21T07:52:44.679Z,96099.63
2023-11-21T07:55:14.244Z,96084.84
2023-11-21T07:57:42.701Z,96074.03
2023-11-21T08:03:09.038Z,96107.63
2023-11-21T08:05:40.988Z,96074.69
2023-11-21T08:08:09.851Z,96065.59
2023-11-21T08:10:40.418Z,96087.16
2023-11-21T08:13:10.248Z,96055.28
2023-11-21T08:15:41.965Z,96073.25
2023-11-21T08:18:12.028Z,96047.06
2023-11-21T08:20:41.406Z,96124.19
2023-11-21T08:23:09.776Z,96077.25
2023-11-21T08:25:40.357Z,96087.91
2023-11-21T08:28:08.591Z,96090.47
2023-11-21T08:30:36.968Z,96103.91
2023-11-21T08:33:07.548Z,96065.13
2023-11-21T08:35:36.013Z,96133.97
2023-11-21T08:38:04.930Z,96124.31
2023-11-21T08:40:34.372Z,96082.72
2023-11-21T08:43:05.724Z,96139.03
2023-11-21T08:45:37.288Z,96099.72
2023-11-21T08:48:08.200Z,96134.91
2023-11-21T08:50:36.909Z,96122.34
2023-11-21T08:53:06.991Z,96141.66
2023-11-21T08:55:38.538Z,96120.88
2023-11-21T08:58:08.164Z,96162.31
2023-11-21T09:00:37.435Z,96093.19
2023-11-21T09:03:10.444Z,96113.31
2023-11-21T09:05:41.018Z,96130.84
2023-11-21T09:08:11.393Z,96107.69
2023-11-21T09:10:40.901Z,96122.34
2023-11-21T09:13:14.402Z,96160.38
2023-11-21T09:15:44.365Z,96137.88
2023-11-21T09:18:15.000Z,96125.44
2023-11-21T09:20:45.517Z,96176.44
2023-11-21T09:23:14.626Z,96140.72
2023-11-21T09:25:48.330Z,96121.91
2023-11-21T09:28:16.656Z,96178.31
2023-11-21T09:30:44.908Z,96119.38
2023-11-21T09:33:16.263Z,96123.41
2023-11-21T09:35:45.469Z,96107.38
2023-11-21T09:38:14.535Z,96119.50
2023-11-21T09:40:42.894Z,96153.22
2023-11-21T09:43:19.134Z,96142.47
2023-11-21T09:45:51.609Z,96004.19
2023-11-21T09:48:23.920Z,96157.56
2023-11-21T09:50:55.698Z,96133.63
2023-11-21T09:53:26.224Z,96085.63
2023-11-21T09:55:57.036Z,96165.41
2023-11-21T09:58:29.326Z,96125.44
2023-11-21T10:01:01.955Z,96122.81
2023-11-21T10:03:32.181Z,96152.44
2023-11-21T10:06:04.845Z,96164.09
2023-11-21T10:08:43.028Z,96141.53
2023-11-21T10:11:23.228Z,96165.31
2023-11-21T10:13:55.345Z,96151.03
2023-11-21T10:16:28.612Z,96146.78
2023-11-21T10:19:09.004Z,96167.75
2023-11-21T10:21:40.910Z,96111.28
2023-11-21T10:24:12.121Z,96108.41
2023-11-21T10:26:48.225Z,96153.28
2023-11-21T10:29:23.158Z,96104.13
2023-11-21T10:31:54.076Z,96257.34
2023-11-21T10:34:24.921Z,96127.38
2023-11-21T10:36:53.144Z,96184.91
2023-11-21T10:39:25.308Z,96161.13
2023-11-21T10:41:53.600Z,96140.47
2023-11-21T10:44:24.321Z,96157.19
2023-11-21T10:46:57.857Z,96170.63
2023-11-21T10:49:29.609Z,96147.38
2023-11-21T10:51:58.888Z,96213.28
2023-11-21T10:54:28.578Z,96131.34
2023-11-21T10:57:03.718Z,96174.63
2023-11-21T10:59:34.267Z,96159.22
2023-11-21T11:02:05.449Z,96191.97
2023-11-21T11:04:41.927Z,96177.84
2023-11-21T11:07:13.764Z,96131.66
2023-11-21T11:09:42.498Z,96150.03
2023-11-21T11:12:11.654Z,96205.28
2023-11-21T11:14:44.965Z,96163.81
2023-11-21T11:17:14.184Z,96169.53
2023-11-21T11:19:46.254Z,96069.53
2023-11-21T11:22:33.043Z,96145.13
2023-11-21T11:25:30.214Z,96161.50
2023-11-21T11:28:07.134Z,96164.44
2023-11-21T11:30:51.003Z,96193.31
2023-11-21T11:33:35.888Z,96186.25
2023-11-21T11:36:15.350Z,96190.50
2023-11-21T11:38:51.047Z,96151.38
2023-11-21T11:41:28.861Z,96163.97
2023-11-21T11:44:00.117Z,96137.28
2023-11-21T11:46:43.941Z,96097.16
2023-11-21T11:49:12.707Z,96185.03
2023-11-21T11:51:42.286Z,96200.59
2023-11-21T11:54:12.405Z,96134.34
2023-11-21T11:56:41.551Z,96177.50
2023-11-21T11:59:12.022Z,96193.75
2023-11-21T12:01:40.897Z,96168.81
2023-11-21T12:04:43.156Z,96196.06
2023-11-21T12:07:16.795Z,96083.50
2023-11-21T12:09:44.552Z,96179.63
2023-11-21T12:12:12.795Z,96184.25
2023-11-21T12:14:44.186Z,96212.63
2023-11-21T12:17:16.046Z,96228.53
2023-11-21T12:19:48.740Z,96217.06
2023-11-21T12:22:19.942Z,96207.81
2023-11-21T12:24:49.145Z,96242.56
2023-11-21T12:27:17.707Z,96159.25
2023-11-21T12:29:46.392Z,96235.38
2023-11-21T12:32:17.544Z,96209.63
2023-11-21T12:34:47.464Z,96208.13
2023-11-21T12:37:16.227Z,96204.16
2023-11-21T12:39:45.882Z,96258.44
2023-11-21T12:42:15.466Z,96233.91
2023-11-21T12:44:49.136Z,96186.16
2023-11-21T12:47:23.477Z,96209.47
2023-11-21T12:49:51.899Z,96205.84
2023-11-21T12:52:20.566Z,96191.75
2023-11-21T12:54:50.757Z,96220.25
2023-11-21T12:57:19.797Z,96246.03
2023-11-21T12:59:48.460Z,96003.84
2023-11-21T13:02:17.701Z,96258.97
2023-11-21T13:04:55.136Z,96238.00
2023-11-21T13:07:23.943Z,96200.59
2023-11-21T13:09:56.630Z,96259.66
2023-11-21T13:12:27.189Z,96151.41
2023-11-21T13:14:55.825Z,96215.72
2023-11-21T13:17:26.122Z,96244.91
2023-11-21T13:19:55.612Z,96092.31
2023-11-21T13:22:26.549Z,96260.66
2023-11-21T13:24:58.918Z,96213.91
2023-11-21T13:27:28.336Z,96250.53
2023-11-21T13:29:56.626Z,96221.47
2023-11-21T13:32:27.276Z,96191.44
2023-11-21T13:34:56.285Z,96237.41
2023-11-21T13:37:26.424Z,96216.06
2023-11-21T13:39:55.886Z,96275.16
2023-11-21T13:42:29.240Z,96248.56
2023-11-21T13:44:59.893Z,96207.41
2023-11-21T13:47:31.175Z,96266.31
2023-11-21T13:50:01.644Z,96228.72
2023-11-21T13:52:33.156Z,96229.53
2023-11-21T13:55:04.034Z,96270.38
2023-11-21T13:57:34.364Z,96221.50
2023-11-21T14:00:02.685Z,96296.81
2023-11-21T14:02:39.580Z,96305.00
2023-11-21T14:05:10.836Z,96258.03
2023-11-21T14:07:40.618Z,96249.13
2023-11-21T14:10:14.297Z,96298.75
2023-11-21T14:12:44.570Z,96287.22
2023-11-21T14:15:18.162Z,96275.25
2023-11-21T14:17:47.144Z,96249.03
2023-11-21T14:20:17.121Z,96261.13
2023-11-21T14:22:48.316Z,96278.69
2023-11-21T14:25:18.839Z,96252.13
2023-11-21T14:27:49.153Z,96338.91
2023-11-21T14:30:20.353Z,96306.88
2023-11-21T14:32:49.609Z,96292.78
2023-11-21T14:35:18.866Z,96389.41
2023-11-21T14:37:48.600Z,96300.59
2023-11-21T14:40:19.676Z,96308.50
2023-11-21T14:42:50.188Z,96311.91
2023-11-21T14:45:21.335Z,96341.63
2023-11-21T14:47:58.440Z,96300.63
2023-11-21T14:50:53.012Z,96316.03
2023-11-21T14:53:42.236Z,96307.00
2023-11-21T14:56:11.744Z,96330.75
2023-11-21T14:58:41.792Z,96305.16
2023-11-21T15:01:12.188Z,96368.34
2023-11-21T15:03:51.721Z,96318.13
2023-11-21T15:06:28.011Z,96333.38
2023-11-21T15:09:18.915Z,96359.63
2023-11-21T15:11:48.681Z,96363.69
2023-11-21T15:14:24.740Z,96355.28
2023-11-21T15:16:54.816Z,96371.09
2023-11-21T15:19:28.126Z,96353.19
2023-11-21T15:21:56.873Z,96334.59
2023-11-21T15:24:25.954Z,96326.44
2023-11-21T15:26:54.535Z,96352.47
2023-11-21T15:29:25.453Z,96380.88
2023-11-21T15:31:57.636Z,96355.56
2023-11-21T15:34:27.725Z,96374.28
2023-11-21T15:36:56.197Z,96371.22
2023-11-21T15:39:28.009Z,96332.13
2023-11-21T15:41:56.728Z,96408.19
2023-11-21T15:44:27.439Z,96335.03
2023-11-21T15:46:56.984Z,96362.53
2023-11-21T15:49:26.030Z,96372.66
2023-11-21T15:51:56.744Z,96394.44
2023-11-21T15:54:26.000Z,96321.25
2023-11-21T15:56:57.770Z,96354.47
2023-11-21T15:59:31.615Z,96361.44
2023-11-21T16:02:00.380Z,96374.16
2023-11-21T16:04:29.280Z,96409.81
2023-11-21T16:06:59.763Z,96366.19
2023-11-21T16:09:32.806Z,96420.63
2023-11-21T16:12:04.525Z,96397.66
2023-11-21T16:14:40.303Z,96344.19
2023-11-21T16:17:09.395Z,96371.00
2023-11-21T16:19:39.842Z,96379.13
2023-11-21T16:22:08.978Z,96392.88
2023-11-21T16:24:38.130Z,96443.13
2023-11-21T16:27:11.675Z,96441.16
2023-11-21T16:29:44.236Z,96389.13
2023-11-21T16:32:13.500Z,96462.25
2023-11-21T16:34:42.316Z,96412.56
2023-11-21T16:37:13.120Z,96501.13
2023-11-21T16:39:43.473Z,96412.22
2023-11-21T16:42:12.055Z,96416.06
2023-11-21T16:44:42.019Z,96463.69
2023-11-21T16:47:10.827Z,96440.19
2023-11-21T16:49:40.692Z,96470.63
2023-11-21T16:52:09.949Z,96465.69
2023-11-21T16:54:38.941Z,96504.97
2023-11-21T16:57:07.600Z,96470.91
2023-11-21T16:59:35.830Z,96450.84
2023-11-21T17:05:23.443Z,96468.66
2023-11-21T17:39:14.341Z,96521.88
2023-11-21T17:41:42.892Z,96452.19
2023-11-21T17:44:11.811Z,96502.28
2023-11-21T17:46:41.108Z,96546.06
2023-11-21T17:49:10.271Z,96483.84
2023-11-21T17:51:44.305Z,96502.88
2023-11-21T17:54:12.565Z,96481.16
2023-11-21T17:56:42.614Z,96530.00
2023-11-21T17:59:11.031Z,96516.06
2023-11-21T18:01:40.760Z,96523.25
2023-11-21T18:04:12.245Z,96530.78
2023-11-21T18:06:43.249Z,96535.34
2023-11-21T18:09:12.347Z,96507.00
2023-11-21T18:11:40.736Z,96514.75
2023-11-21T18:14:11.313Z,96573.94
2023-11-21T18:16:42.888Z,96534.53
2023-11-21T18:19:11.661Z,96617.03
2023-11-21T18:21:45.748Z,96567.06
2023-11-21T18:24:14.494Z,96565.25
2023-11-21T18:26:42.757Z,96576.66
2023-11-21T18:29:11.395Z,96577.78
2023-11-21T18:31:42.296Z,96566.59
2023-11-21T18:34:11.094Z,96571.47
2023-11-21T18:36:39.745Z,96529.03
2023-11-21T18:39:10.394Z,96581.50
2023-11-21T18:41:38.766Z,96568.41
2023-11-21T18:44:09.885Z,96592.34
2023-11-21T18:46:39.674Z,96579.44
2023-11-21T18:49:08.579Z,96602.25
2023-11-21T18:51:37.942Z,96585.31
2023-11-21T18:54:08.277Z,96553.56
2023-11-21T18:56:36.770Z,96610.09
2023-11-21T18:59:09.850Z,96581.22
2023-11-21T19:01:39.874Z,96587.84
2023-11-21T19:04:09.187Z,96573.63
2023-11-21T19:06:37.545Z,96579.13
2023-11-21T19:09:05.998Z,96581.34
2023-11-21T19:11:37.138Z,96628.31
2023-11-21T19:14:05.751Z,96559.50
2023-11-21T19:16:34.176Z,96547.22
2023-11-21T19:19:03.111Z,96589.38
2023-11-21T19:21:31.803Z,96586.63
2023-11-21T19:24:00.157Z,96562.13
2023-11-21T19:26:28.831Z,96656.53
2023-11-21T19:28:58.753Z,96596.81
2023-11-21T19:31:27.301Z,96629.03
2023-11-21T19:33:55.868Z,96601.50
2023-11-21T19:36:24.460Z,96580.84
2023-11-21T19:38:52.992Z,96615.00
2023-11-21T19:41:23.439Z,96647.03
2023-11-21T19:43:53.368Z,96636.47
2023-11-21T19:46:24.098Z,96621.59
2023-11-21T19:48:54.289Z,96603.84
2023-11-21T19:51:23.967Z,96608.53
2023-11-21T19:53:52.777Z,96683.41
2023-11-21T19:56:22.100Z,96644.44
2023-11-21T19:58:51.133Z,96639.75
2023-11-21T20:01:21.436Z,96671.72
2023-11-21T20:03:52.861Z,96664.69
2023-11-21T20:06:22.552Z,96641.13
2023-11-21T20:08:52.705Z,96714.91
2023-11-21T20:11:24.233Z,96623.66
2023-11-21T20:13:53.512Z,96679.28
2023-11-21T20:16:21.883Z,96700.88
2023-11-21T20:18:51.768Z,96599.81
2023-11-21T20:21:23.742Z,96642.66
2023-11-21T20:23:52.263Z,96580.25
2023-11-21T20:26:26.160Z,96645.00
2023-11-21T20:28:56.774Z,96710.25
2023-11-21T20:31:25.761Z,96678.59
2023-11-21T20:33:55.901Z,96689.88
2023-11-21T20:36:24.245Z,96657.09
2023-11-21T20:38:53.379Z,96677.22
2023-11-21T20:41:21.812Z,96731.19
2023-11-21T20:43:50.417Z,96707.78
2023-11-21T20:46:18.678Z,96684.66
2023-11-21T20:48:47.106Z,96776.06
2023-11-21T20:51:17.518Z,96698.81
2023-11-21T20:53:47.691Z,96712.44
2023-11-21T20:56:16.093Z,96714.78
2023-11-21T20:58:45.802Z,96722.66
2023-11-21T21:01:15.894Z,96750.19
2023-11-21T21:03:47.030Z,96664.78
2023-11-21T21:06:18.343Z,96705.59
2023-11-21T21:08:46.715Z,96666.34
2023-11-21T21:11:19.214Z,96726.06
2023-11-21T21:13:48.370Z,96739.16
2023-11-21T21:16:16.900Z,96722.25
2023-11-21T21:18:46.008Z,96734.09
2023-11-21T21:21:14.751Z,96751.84
2023-11-21T21:23:45.161Z,96731.75
2023-11-21T21:26:13.628Z,96588.69
2023-11-21T21:28:42.845Z,96704.72
2023-11-21T21:31:13.177Z,96754.59
2023-11-21T21:33:41.411Z,96743.72
2023-11-21T21:36:13.157Z,96733.66
2023-11-21T21:38:44.084Z,96715.34
2023-11-21T21:41:14.022Z,96765.47
2023-11-21T21:43:42.347Z,96762.16
2023-11-21T21:46:11.889Z,96734.75
2023-11-21T21:48:41.020Z,96667.94
2023-11-21T21:51:18.274Z,96685.13
2023-11-21T21:53:49.361Z,96685.72
2023-11-21T21:56:22.616Z,96728.56
2023-11-21T21:58:51.927Z,96747.69
2023-11-21T22:01:21.100Z,96714.66
2023-11-21T22:03:49.556Z,96711.88
2023-11-21T22:06:18.067Z,96762.41
2023-11-21T22:08:48.565Z,96738.31
2023-11-21T22:11:17.284Z,96768.13
2023-11-21T22:13:45.521Z,96798.78
2023-11-21T22:16:14.004Z,96748.41
2023-11-21T22:18:42.410Z,96757.91
2023-11-21T22:21:10.784Z,96734.91
2023-11-21T22:23:40.579Z,96774.84
2023-11-21T22:26:10.417Z,96781.91
2023-11-21T22:28:40.141Z,96775.97
2023-11-21T22:31:08.417Z,96705.66
2023-11-21T22:33:37.841Z,96745.38
2023-11-21T22:36:08.235Z,96771.91
2023-11-21T22:38:37.216Z,96794.59
2023-11-21T22:41:07.012Z,96818.06
2023-11-21T22:43:36.720Z,96732.22
2023-11-21T22:46:05.577Z,96806.19
2023-11-21T22:48:35.292Z,96827.69
2023-11-21T22:51:05.217Z,96795.19
2023-11-21T22:53:33.526Z,96819.38
2023-11-21T22:56:01.842Z,96819.00
2023-11-21T22:58:30.346Z,96776.06
2023-11-21T23:01:00.102Z,96812.59
2023-11-21T23:03:28.501Z,96796.16
2023-11-21T23:05:56.813Z,96831.41
2023-11-21T23:08:27.129Z,96878.16
2023-11-21T23:10:57.169Z,96836.53
2023-11-21T23:13:25.512Z,96855.28
2023-11-21T23:15:56.500Z,96825.81
2023-11-21T23:18:28.989Z,96799.19
2023-11-21T23:20:58.416Z,96735.09
2023-11-21T23:23:28.276Z,96860.31
2023-11-21T23:25:56.952Z,96794.75
2023-11-21T23:28:25.817Z,96810.63
2023-11-21T23:30:54.193Z,96853.63
2023-11-21T23:33:22.677Z,96873.31
2023-11-21T23:35:52.393Z,96862.53
2023-11-21T23:38:20.891Z,96808.34
2023-11-21T23:40:49.252Z,96842.25
2023-11-21T23:43:20.279Z,96848.97
2023-11-21T23:45:48.731Z,96811.66
2023-11-21T23:48:17.130Z,96776.09
2023-11-21T23:50:45.414Z,96844.38
2023-11-21T23:53:15.245Z,96763.00
2023-11-21T23:55:43.979Z,96888.94
2023-11-21T23:58:12.940Z,96860.38
